createdAt,value
2023-04-17T00:00:43.648Z,33.70
2023-04-17T00:05:45.947Z,26.70
2023-04-17T00:10:51.118Z,30.75
2023-04-17T00:15:56.167Z,44.00
2023-04-17T00:20:59.025Z,28.80
2023-04-17T00:25:58.634Z,28.70
2023-04-17T00:30:59.099Z,27.50
2023-04-17T00:35:57.197Z,31.20
2023-04-17T00:40:57.502Z,27.42
2023-04-17T00:45:57.495Z,40.38
2023-04-17T00:51:02.395Z,36.35
2023-04-17T00:56:05.012Z,33.42
2023-04-17T01:01:14.382Z,33.45
2023-04-17T01:06:14.082Z,34.05
2023-04-17T01:11:14.018Z,32.28
2023-04-17T01:16:13.485Z,34.50
2023-04-17T01:21:13.386Z,38.03
2023-04-17T01:26:18.192Z,43.08
2023-04-17T01:31:18.702Z,42.22
2023-04-17T01:36:23.103Z,33.63
2023-04-17T01:41:25.006Z,35.17
2023-04-17T01:46:25.209Z,39.28
2023-04-17T01:51:28.132Z,37.75
2023-04-17T01:56:32.311Z,40.37
2023-04-17T02:01:31.573Z,41.08
2023-04-17T02:06:35.315Z,51.72
2023-04-17T02:11:35.855Z,48.20
2023-04-17T02:16:36.567Z,35.10
2023-04-17T02:21:40.169Z,32.92
2023-04-17T02:26:42.200Z,39.47
2023-04-17T02:31:46.546Z,31.98
2023-04-17T02:36:51.182Z,41.58
2023-04-17T02:41:53.210Z,31.00
2023-04-17T02:46:52.299Z,38.88
2023-04-17T02:51:54.323Z,46.30
2023-04-17T02:56:53.446Z,37.13
2023-04-17T03:01:53.728Z,40.95
2023-04-17T03:06:54.428Z,38.50
2023-04-17T03:11:54.484Z,39.75
2023-04-17T03:16:58.304Z,39.10
2023-04-17T03:26:58.838Z,32.95
2023-04-17T03:32:01.481Z,32.35
2023-04-17T03:36:59.867Z,33.33
2023-04-17T03:42:03.447Z,33.00
2023-04-17T03:47:01.848Z,31.13
2023-04-17T03:52:04.015Z,31.85
2023-04-17T03:57:04.202Z,29.10
2023-04-17T04:02:11.913Z,28.77
2023-04-17T04:07:11.331Z,31.05
2023-04-17T04:12:16.489Z,30.58
2023-04-17T04:17:22.266Z,25.90
2023-04-17T04:22:29.782Z,36.05
2023-04-17T04:27:33.881Z,25.27
2023-04-17T04:32:38.808Z,28.38
2023-04-17T04:37:43.182Z,25.15
2023-04-17T04:42:49.901Z,25.27
2023-04-17T04:48:00.877Z,30.08
2023-04-17T04:53:01.900Z,28.85
2023-04-17T04:58:38.324Z,31.02
2023-04-17T05:03:40.926Z,26.25
2023-04-17T05:08:52.917Z,27.15
2023-04-17T05:13:54.090Z,35.47
2023-04-17T05:18:58.006Z,33.30
2023-04-17T05:24:16.548Z,27.08
2023-04-17T05:29:26.327Z,24.90
2023-04-17T05:34:30.302Z,27.83
2023-04-17T05:39:29.162Z,24.40
2023-04-17T05:45:10.053Z,30.35
2023-04-17T05:50:40.374Z,28.73
2023-04-17T05:55:41.925Z,21.92
2023-04-17T06:01:13.717Z,30.23
2023-04-17T06:06:21.796Z,93.10
2023-04-17T06:11:25.535Z,23.23
2023-04-17T06:16:26.835Z,22.42
2023-04-17T06:21:24.897Z,23.52
2023-04-17T06:26:22.987Z,27.83
2023-04-17T06:31:22.629Z,25.70
2023-04-17T06:36:22.567Z,24.33
2023-04-17T06:41:25.428Z,27.77
2023-04-17T06:46:30.548Z,18.65
2023-04-17T06:51:32.056Z,25.33
2023-04-17T06:56:36.930Z,19.92
2023-04-17T07:01:35.994Z,16.83
2023-04-17T07:06:36.792Z,18.02
2023-04-17T07:17:06.932Z,23.95
2023-04-17T07:22:08.292Z,20.50
2023-04-17T07:27:08.604Z,24.88
2023-04-17T07:32:29.394Z,16.52
2023-04-17T07:37:28.812Z,18.02
2023-04-17T07:42:34.894Z,23.98
2023-04-17T07:47:34.205Z,23.23
2023-04-17T07:52:31.937Z,17.98
2023-04-17T07:57:42.977Z,10.25
2023-04-17T08:02:44.100Z,16.38
2023-04-17T08:07:44.030Z,16.05
2023-04-17T08:12:45.358Z,11.98
2023-04-17T08:17:52.452Z,20.35
2023-04-17T08:22:54.623Z,18.13
2023-04-17T08:27:52.965Z,10.98
2023-04-17T08:32:55.793Z,14.30
2023-04-17T08:37:58.994Z,16.80
2023-04-17T08:42:59.144Z,11.83
2023-04-17T08:48:01.965Z,15.30
2023-04-17T08:53:01.777Z,13.05
2023-04-17T08:58:04.263Z,11.82
2023-04-17T09:03:12.537Z,16.73
2023-04-17T09:08:27.999Z,14.10
2023-04-17T09:13:33.547Z,20.42
2023-04-17T09:18:43.859Z,12.45
2023-04-17T09:23:55.735Z,11.30
2023-04-17T09:29:21.608Z,8.80
2023-04-17T09:34:22.012Z,7.97
2023-04-17T09:39:30.052Z,6.43
2023-04-17T09:44:32.730Z,6.72
2023-04-17T09:49:52.841Z,10.50
2023-04-17T09:54:55.103Z,8.30
2023-04-17T10:00:03.347Z,7.63
2023-04-17T10:05:09.000Z,7.63
2023-04-17T10:10:11.157Z,8.77
2023-04-17T10:15:16.099Z,8.50
2023-04-17T10:20:23.722Z,7.30
2023-04-17T10:25:35.321Z,6.38
2023-04-17T10:36:41.427Z,4.95
2023-04-17T10:47:43.041Z,6.72
2023-04-17T10:52:49.968Z,5.93
2023-04-17T10:57:53.310Z,8.00
2023-04-17T11:02:53.501Z,4.93
2023-04-17T11:07:53.216Z,7.22
2023-04-17T11:12:53.809Z,7.15
2023-04-17T11:17:52.912Z,7.28
2023-04-17T11:28:30.229Z,8.35
2023-04-17T11:33:37.312Z,11.65
2023-04-17T11:38:35.960Z,16.58
2023-04-17T11:43:39.064Z,11.43
2023-04-17T11:48:42.532Z,14.07
2023-04-17T11:53:48.590Z,13.80
2023-04-17T11:58:57.851Z,13.93
2023-04-17T12:03:59.296Z,12.50
2023-04-17T12:09:03.056Z,10.15
2023-04-17T12:14:07.980Z,7.63
2023-04-17T12:19:11.762Z,14.43
2023-04-17T12:24:13.576Z,13.27
2023-04-17T12:29:15.964Z,17.65
2023-04-17T12:34:20.899Z,17.40
2023-04-17T12:39:19.233Z,13.15
2023-04-17T12:44:34.050Z,17.95
2023-04-17T12:49:33.120Z,10.25
2023-04-17T12:54:36.394Z,19.00
2023-04-17T12:59:43.968Z,13.43
2023-04-17T13:04:43.855Z,11.50
2023-04-17T13:09:43.571Z,9.40
2023-04-17T13:14:44.547Z,10.68
2023-04-17T13:19:47.049Z,13.30
2023-04-17T13:24:51.761Z,12.90
2023-04-17T13:36:39.172Z,13.25
2023-04-17T13:41:41.379Z,14.17
2023-04-17T13:46:41.004Z,18.35
2023-04-17T13:51:39.650Z,16.70
2023-04-17T13:56:39.165Z,14.43
2023-04-17T14:01:44.920Z,12.40
2023-04-17T14:06:44.396Z,15.70
2023-04-17T14:11:42.986Z,19.98
2023-04-17T14:16:46.498Z,14.27
2023-04-17T14:21:44.934Z,16.60
2023-04-17T14:26:45.519Z,23.45
2023-04-17T14:31:46.467Z,24.67
2023-04-17T14:36:49.234Z,22.20
2023-04-17T14:42:02.256Z,18.73
2023-04-17T14:47:03.815Z,21.43
2023-04-17T14:52:03.502Z,21.88
2023-04-17T14:57:01.975Z,20.88
2023-04-17T15:02:03.123Z,27.55
2023-04-17T15:07:05.052Z,25.92
2023-04-17T15:12:07.962Z,22.38
2023-04-17T15:17:07.173Z,23.70
2023-04-17T15:22:11.369Z,16.83
2023-04-17T15:27:11.028Z,22.55
2023-04-17T15:32:13.156Z,21.50
2023-04-17T15:37:15.398Z,22.50
2023-04-17T15:42:18.254Z,21.13
2023-04-17T15:47:17.772Z,13.35
2023-04-17T15:52:16.958Z,13.13
2023-04-17T15:57:19.378Z,16.17
2023-04-17T16:02:21.706Z,13.73
2023-04-17T16:13:13.268Z,13.98
2023-04-17T16:18:16.381Z,11.40
2023-04-17T16:23:18.179Z,12.90
2023-04-17T16:28:18.271Z,12.18
2023-04-17T16:33:18.717Z,13.07
2023-04-17T16:38:18.283Z,11.07
2023-04-17T16:43:22.636Z,9.80
2023-04-17T16:48:30.773Z,8.05
2023-04-17T16:53:32.361Z,11.43
2023-04-17T16:58:34.936Z,8.45
2023-04-17T17:03:33.737Z,8.18
2023-04-17T17:08:32.475Z,13.05
2023-04-17T17:13:34.088Z,11.32
2023-04-17T17:18:35.966Z,12.07
2023-04-17T17:23:38.430Z,7.13
2023-04-17T17:28:38.491Z,11.18
2023-04-17T17:33:41.246Z,6.57
2023-04-17T17:38:44.127Z,9.07
2023-04-17T17:43:45.587Z,7.95
2023-04-17T17:48:50.694Z,9.82
2023-04-17T17:53:49.870Z,12.25
2023-04-17T17:58:54.089Z,14.98
2023-04-17T18:03:55.044Z,10.60
2023-04-17T18:08:54.380Z,7.40
2023-04-17T18:14:00.432Z,7.25
2023-04-17T18:19:02.114Z,10.57
2023-04-17T18:24:06.509Z,9.93
2023-04-17T18:29:06.184Z,11.07
2023-04-17T18:34:07.044Z,5.68
2023-04-17T18:39:05.690Z,7.28
2023-04-17T18:44:04.569Z,13.18
2023-04-17T18:49:11.658Z,6.45
2023-04-17T18:54:13.992Z,13.55
2023-04-17T19:04:57.700Z,14.20
2023-04-17T19:10:04.635Z,12.98
2023-04-17T19:15:17.992Z,18.25
2023-04-17T19:20:17.239Z,5.28
2023-04-17T19:25:18.913Z,9.05
2023-04-17T19:30:26.208Z,7.40
2023-04-17T19:35:38.737Z,12.75
2023-04-17T19:40:38.265Z,7.25
2023-04-17T19:45:50.697Z,9.32
2023-04-17T19:50:54.269Z,10.30
2023-04-17T19:56:43.182Z,10.55
2023-04-17T20:01:43.419Z,10.88
2023-04-17T20:06:48.120Z,11.43
2023-04-17T20:11:45.894Z,11.45
2023-04-17T20:16:46.672Z,14.88
2023-04-17T20:21:51.449Z,7.00
2023-04-17T20:26:53.903Z,4.43
2023-04-17T20:31:54.304Z,5.63
2023-04-17T20:37:03.670Z,10.60
2023-04-17T20:42:05.958Z,8.35
2023-04-17T20:47:06.960Z,5.97
2023-04-17T20:52:10.926Z,11.05
2023-04-17T20:57:16.122Z,9.70
2023-04-17T21:02:27.932Z,12.60
2023-04-17T21:07:30.009Z,9.23
2023-04-17T21:12:33.389Z,11.23
2023-04-17T21:17:36.508Z,9.13
2023-04-17T21:22:50.926Z,11.93
2023-04-17T21:27:52.792Z,10.38
2023-04-17T21:32:53.898Z,8.68
2023-04-17T21:37:55.514Z,7.72
2023-04-17T21:42:56.739Z,6.30
2023-04-17T21:48:00.542Z,9.07
2023-04-17T21:53:05.564Z,11.90
2023-04-17T21:58:05.667Z,6.55
2023-04-17T22:03:04.252Z,3.67
2023-04-17T22:08:34.226Z,11.30
2023-04-17T22:13:53.586Z,9.13
2023-04-17T22:19:25.627Z,10.35
2023-04-17T22:24:39.229Z,9.05
2023-04-17T22:29:38.893Z,6.15
2023-04-17T22:34:45.646Z,8.20
2023-04-17T22:39:45.766Z,6.38
2023-04-17T22:44:44.417Z,11.20
2023-04-17T22:49:47.075Z,7.75
2023-04-17T22:54:46.774Z,10.75
2023-04-17T22:59:48.582Z,11.40
2023-04-17T23:04:51.199Z,9.55
2023-04-17T23:09:51.838Z,16.33
2023-04-17T23:14:51.894Z,21.88
2023-04-17T23:19:55.480Z,23.55
2023-04-17T23:24:58.165Z,13.77
2023-04-17T23:29:58.038Z,20.20
2023-04-17T23:34:59.270Z,17.08
2023-04-17T23:40:05.317Z,13.63
2023-04-17T23:45:04.462Z,15.32
2023-04-17T23:50:05.616Z,16.90
2023-04-17T23:55:05.924Z,16.17
